sensor_id;sensor_type;location;lat;lon;timestamp;P1;durP1;ratioP1;P2;durP2;ratioP2
26953;SDS011;14508;50.924;11.600;2023-10-13T00:00:33;7.85;;;2.13;;
26953;SDS011;14508;50.924;11.600;2023-10-13T00:03:03;6.88;;;2.42;;
26953;SDS011;14508;50.924;11.600;2023-10-13T00:05:33;4.90;;;2.05;;
26953;SDS011;14508;50.924;11.600;2023-10-13T00:08:02;4.68;;;2.67;;
26953;SDS011;14508;50.924;11.600;2023-10-13T00:10:32;3.25;;;2.03;;
26953;SDS011;14508;50.924;11.600;2023-10-13T00:13:01;5.80;;;2.38;;
26953;SDS011;14508;50.924;11.600;2023-10-13T00:15:39;5.07;;;2.58;;
26953;SDS011;14508;50.924;11.600;2023-10-13T00:18:12;6.20;;;2.38;;
26953;SDS011;14508;50.924;11.600;2023-10-13T00:20:40;4.70;;;2.53;;
26953;SDS011;14508;50.924;11.600;2023-10-13T00:23:15;3.10;;;2.05;;
26953;SDS011;14508;50.924;11.600;2023-10-13T00:25:49;5.90;;;2.83;;
26953;SDS011;14508;50.924;11.600;2023-10-13T00:28:23;8.27;;;2.72;;
26953;SDS011;14508;50.924;11.600;2023-10-13T00:30:54;4.95;;;2.90;;
26953;SDS011;14508;50.924;11.600;2023-10-13T00:33:27;4.65;;;2.85;;
26953;SDS011;14508;50.924;11.600;2023-10-13T00:35:58;3.75;;;2.30;;
26953;SDS011;14508;50.924;11.600;2023-10-13T00:38:27;4.78;;;2.70;;
26953;SDS011;14508;50.924;11.600;2023-10-13T00:40:57;8.13;;;2.65;;
26953;SDS011;14508;50.924;11.600;2023-10-13T00:43:30;5.18;;;2.80;;
26953;SDS011;14508;50.924;11.600;2023-10-13T00:46:04;7.55;;;3.80;;
26953;SDS011;14508;50.924;11.600;2023-10-13T00:48:40;3.67;;;2.28;;
26953;SDS011;14508;50.924;11.600;2023-10-13T00:51:10;6.72;;;3.15;;
26953;SDS011;14508;50.924;11.600;2023-10-13T00:53:48;4.22;;;2.97;;
26953;SDS011;14508;50.924;11.600;2023-10-13T00:56:18;4.43;;;2.90;;
26953;SDS011;14508;50.924;11.600;2023-10-13T00:58:50;7.82;;;2.63;;
26953;SDS011;14508;50.924;11.600;2023-10-13T01:01:18;7.15;;;3.22;;
26953;SDS011;14508;50.924;11.600;2023-10-13T01:03:49;4.25;;;2.72;;
26953;SDS011;14508;50.924;11.600;2023-10-13T01:06:22;5.55;;;2.60;;
26953;SDS011;14508;50.924;11.600;2023-10-13T01:08:58;5.53;;;2.95;;
26953;SDS011;14508;50.924;11.600;2023-10-13T01:11:28;5.78;;;2.60;;
26953;SDS011;14508;50.924;11.600;2023-10-13T01:13:58;4.82;;;2.88;;
26953;SDS011;14508;50.924;11.600;2023-10-13T01:16:29;4.95;;;2.88;;
26953;SDS011;14508;50.924;11.600;2023-10-13T01:18:57;6.00;;;3.05;;
26953;SDS011;14508;50.924;11.600;2023-10-13T01:21:26;6.63;;;3.22;;
26953;SDS011;14508;50.924;11.600;2023-10-13T01:23:56;4.38;;;2.72;;
26953;SDS011;14508;50.924;11.600;2023-10-13T01:26:23;4.88;;;2.78;;
26953;SDS011;14508;50.924;11.600;2023-10-13T01:28:56;5.18;;;3.33;;
26953;SDS011;14508;50.924;11.600;2023-10-13T01:31:24;5.43;;;3.45;;
26953;SDS011;14508;50.924;11.600;2023-10-13T01:33:54;5.88;;;2.72;;
26953;SDS011;14508;50.924;11.600;2023-10-13T01:36:25;7.15;;;3.28;;
26953;SDS011;14508;50.924;11.600;2023-10-13T01:38:56;5.50;;;2.83;;
26953;SDS011;14508;50.924;11.600;2023-10-13T01:41:27;5.30;;;2.97;;
26953;SDS011;14508;50.924;11.600;2023-10-13T01:43:57;7.30;;;3.15;;
26953;SDS011;14508;50.924;11.600;2023-10-13T01:46:25;5.35;;;2.92;;
26953;SDS011;14508;50.924;11.600;2023-10-13T01:48:55;5.72;;;2.50;;
26953;SDS011;14508;50.924;11.600;2023-10-13T01:51:24;8.88;;;3.85;;
26953;SDS011;14508;50.924;11.600;2023-10-13T01:53:53;9.55;;;3.65;;
26953;SDS011;14508;50.924;11.600;2023-10-13T01:56:24;5.35;;;3.22;;
26953;SDS011;14508;50.924;11.600;2023-10-13T01:58:52;5.75;;;3.03;;
26953;SDS011;14508;50.924;11.600;2023-10-13T02:01:20;5.63;;;3.25;;
26953;SDS011;14508;50.924;11.600;2023-10-13T02:03:54;5.60;;;2.90;;
26953;SDS011;14508;50.924;11.600;2023-10-13T02:06:29;6.53;;;3.38;;
26953;SDS011;14508;50.924;11.600;2023-10-13T02:09:00;9.40;;;3.40;;
26953;SDS011;14508;50.924;11.600;2023-10-13T02:11:37;6.03;;;2.95;;
26953;SDS011;14508;50.924;11.600;2023-10-13T02:14:05;11.75;;;4.05;;
26953;SDS011;14508;50.924;11.600;2023-10-13T02:16:33;6.40;;;3.20;;
26953;SDS011;14508;50.924;11.600;2023-10-13T02:19:03;6.78;;;3.50;;
26953;SDS011;14508;50.924;11.600;2023-10-13T02:21:31;8.55;;;3.50;;
26953;SDS011;14508;50.924;11.600;2023-10-13T02:23:58;7.18;;;3.80;;
26953;SDS011;14508;50.924;11.600;2023-10-13T02:26:32;4.97;;;2.95;;
26953;SDS011;14508;50.924;11.600;2023-10-13T02:29:05;7.13;;;4.38;;
26953;SDS011;14508;50.924;11.600;2023-10-13T02:31:34;5.55;;;3.83;;
26953;SDS011;14508;50.924;11.600;2023-10-13T02:34:03;7.72;;;3.10;;
26953;SDS011;14508;50.924;11.600;2023-10-13T02:36:35;6.13;;;3.13;;
26953;SDS011;14508;50.924;11.600;2023-10-13T02:39:06;5.80;;;3.35;;
26953;SDS011;14508;50.924;11.600;2023-10-13T02:41:36;7.43;;;3.33;;
26953;SDS011;14508;50.924;11.600;2023-10-13T02:44:03;6.68;;;3.38;;
26953;SDS011;14508;50.924;11.600;2023-10-13T02:46:34;6.90;;;3.10;;
26953;SDS011;14508;50.924;11.600;2023-10-13T02:49:03;8.88;;;3.38;;
26953;SDS011;14508;50.924;11.600;2023-10-13T02:51:37;6.10;;;3.67;;
26953;SDS011;14508;50.924;11.600;2023-10-13T02:54:08;7.05;;;3.90;;
26953;SDS011;14508;50.924;11.600;2023-10-13T02:56:39;8.23;;;3.33;;
26953;SDS011;14508;50.924;11.600;2023-10-13T02:59:15;6.63;;;3.60;;
26953;SDS011;14508;50.924;11.600;2023-10-13T03:01:46;7.60;;;3.00;;
26953;SDS011;14508;50.924;11.600;2023-10-13T03:04:13;5.25;;;3.00;;
26953;SDS011;14508;50.924;11.600;2023-10-13T03:06:49;7.38;;;3.40;;
26953;SDS011;14508;50.924;11.600;2023-10-13T03:09:16;6.00;;;3.53;;
26953;SDS011;14508;50.924;11.600;2023-10-13T03:11:47;6.05;;;3.30;;
26953;SDS011;14508;50.924;11.600;2023-10-13T03:14:15;6.60;;;2.88;;
26953;SDS011;14508;50.924;11.600;2023-10-13T03:16:55;6.43;;;3.60;;
26953;SDS011;14508;50.924;11.600;2023-10-13T03:19:29;5.70;;;3.33;;
26953;SDS011;14508;50.924;11.600;2023-10-13T03:22:01;7.30;;;3.30;;
26953;SDS011;14508;50.924;11.600;2023-10-13T03:24:35;6.65;;;3.15;;
26953;SDS011;14508;50.924;11.600;2023-10-13T03:27:09;5.78;;;2.80;;
26953;SDS011;14508;50.924;11.600;2023-10-13T03:29:42;7.00;;;3.78;;
26953;SDS011;14508;50.924;11.600;2023-10-13T03:32:11;4.55;;;2.75;;
26953;SDS011;14508;50.924;11.600;2023-10-13T03:34:41;7.03;;;3.30;;
26953;SDS011;14508;50.924;11.600;2023-10-13T03:37:22;5.65;;;3.10;;
26953;SDS011;14508;50.924;11.600;2023-10-13T03:40:04;5.00;;;3.00;;
26953;SDS011;14508;50.924;11.600;2023-10-13T03:42:43;5.15;;;3.10;;
26953;SDS011;14508;50.924;11.600;2023-10-13T03:45:24;5.97;;;2.70;;
26953;SDS011;14508;50.924;11.600;2023-10-13T03:47:52;7.20;;;3.63;;
26953;SDS011;14508;50.924;11.600;2023-10-13T03:50:20;5.82;;;3.70;;
26953;SDS011;14508;50.924;11.600;2023-10-13T03:55:24;6.15;;;3.50;;
26953;SDS011;14508;50.924;11.600;2023-10-13T03:57:57;5.38;;;2.97;;
26953;SDS011;14508;50.924;11.600;2023-10-13T04:00:26;5.43;;;3.25;;
26953;SDS011;14508;50.924;11.600;2023-10-13T04:02:54;5.35;;;3.13;;
26953;SDS011;14508;50.924;11.600;2023-10-13T04:05:33;7.90;;;3.08;;
26953;SDS011;14508;50.924;11.600;2023-10-13T04:08:11;8.55;;;3.67;;
26953;SDS011;14508;50.924;11.600;2023-10-13T04:10:57;4.50;;;2.75;;
26953;SDS011;14508;50.924;11.600;2023-10-13T04:13:44;5.70;;;3.33;;
26953;SDS011;14508;50.924;11.600;2023-10-13T04:16:29;6.72;;;3.58;;
26953;SDS011;14508;50.924;11.600;2023-10-13T04:19:13;6.00;;;3.30;;
26953;SDS011;14508;50.924;11.600;2023-10-13T04:21:50;5.72;;;3.45;;
26953;SDS011;14508;50.924;11.600;2023-10-13T04:24:40;5.88;;;3.28;;
26953;SDS011;14508;50.924;11.600;2023-10-13T04:30:08;7.97;;;4.07;;
26953;SDS011;14508;50.924;11.600;2023-10-13T04:32:50;7.40;;;3.42;;
26953;SDS011;14508;50.924;11.600;2023-10-13T04:35:44;5.90;;;3.53;;
26953;SDS011;14508;50.924;11.600;2023-10-13T04:38:24;9.73;;;4.10;;
26953;SDS011;14508;50.924;11.600;2023-10-13T04:40:59;6.80;;;3.85;;
26953;SDS011;14508;50.924;11.600;2023-10-13T04:43:36;7.20;;;4.05;;
26953;SDS011;14508;50.924;11.600;2023-10-13T04:46:23;7.50;;;3.47;;
26953;SDS011;14508;50.924;11.600;2023-10-13T04:49:06;7.88;;;3.65;;
26953;SDS011;14508;50.924;11.600;2023-10-13T04:51:54;5.60;;;3.85;;
26953;SDS011;14508;50.924;11.600;2023-10-13T04:54:25;10.48;;;4.68;;
26953;SDS011;14508;50.924;11.600;2023-10-13T04:57:00;6.50;;;3.63;;
26953;SDS011;14508;50.924;11.600;2023-10-13T04:59:42;7.75;;;4.00;;
26953;SDS011;14508;50.924;11.600;2023-10-13T05:05:13;8.45;;;4.25;;
26953;SDS011;14508;50.924;11.600;2023-10-13T05:08:01;6.55;;;3.70;;
26953;SDS011;14508;50.924;11.600;2023-10-13T05:10:52;7.05;;;3.25;;
26953;SDS011;14508;50.924;11.600;2023-10-13T05:13:49;5.90;;;3.75;;
26953;SDS011;14508;50.924;11.600;2023-10-13T05:16:34;8.23;;;3.85;;
26953;SDS011;14508;50.924;11.600;2023-10-13T05:19:20;8.20;;;4.35;;
26953;SDS011;14508;50.924;11.600;2023-10-13T05:22:05;6.82;;;3.50;;
26953;SDS011;14508;50.924;11.600;2023-10-13T05:24:52;6.97;;;3.83;;
26953;SDS011;14508;50.924;11.600;2023-10-13T05:27:38;7.03;;;3.83;;
26953;SDS011;14508;50.924;11.600;2023-10-13T05:30:24;5.60;;;3.30;;
26953;SDS011;14508;50.924;11.600;2023-10-13T05:35:55;10.15;;;3.55;;
26953;SDS011;14508;50.924;11.600;2023-10-13T05:38:41;6.43;;;3.33;;
26953;SDS011;14508;50.924;11.600;2023-10-13T05:41:36;7.43;;;3.45;;
26953;SDS011;14508;50.924;11.600;2023-10-13T05:44:22;8.10;;;3.50;;
26953;SDS011;14508;50.924;11.600;2023-10-13T05:47:19;5.38;;;3.45;;
26953;SDS011;14508;50.924;11.600;2023-10-13T05:50:05;7.95;;;3.60;;
26953;SDS011;14508;50.924;11.600;2023-10-13T05:52:55;6.10;;;3.63;;
26953;SDS011;14508;50.924;11.600;2023-10-13T05:55:40;6.18;;;3.47;;
26953;SDS011;14508;50.924;11.600;2023-10-13T05:58:29;6.20;;;3.08;;
26953;SDS011;14508;50.924;11.600;2023-10-13T06:01:15;7.10;;;3.10;;
26953;SDS011;14508;50.924;11.600;2023-10-13T06:04:12;8.70;;;3.47;;
26953;SDS011;14508;50.924;11.600;2023-10-13T06:09:43;8.55;;;3.83;;
26953;SDS011;14508;50.924;11.600;2023-10-13T06:15:15;5.32;;;3.50;;
26953;SDS011;14508;50.924;11.600;2023-10-13T06:17:57;6.55;;;2.83;;
26953;SDS011;14508;50.924;11.600;2023-10-13T06:20:43;5.38;;;3.38;;
26953;SDS011;14508;50.924;11.600;2023-10-13T06:23:29;5.85;;;3.13;;
26953;SDS011;14508;50.924;11.600;2023-10-13T06:26:15;5.97;;;3.00;;
26953;SDS011;14508;50.924;11.600;2023-10-13T06:31:29;7.95;;;2.85;;
26953;SDS011;14508;50.924;11.600;2023-10-13T06:34:01;5.90;;;3.25;;
26953;SDS011;14508;50.924;11.600;2023-10-13T06:36:30;5.43;;;3.05;;
26953;SDS011;14508;50.924;11.600;2023-10-13T06:38:59;7.22;;;3.67;;
26953;SDS011;14508;50.924;11.600;2023-10-13T06:41:41;7.75;;;3.78;;
26953;SDS011;14508;50.924;11.600;2023-10-13T06:44:10;10.00;;;4.00;;
26953;SDS011;14508;50.924;11.600;2023-10-13T06:46:43;5.22;;;3.30;;
26953;SDS011;14508;50.924;11.600;2023-10-13T06:49:12;5.97;;;3.38;;
26953;SDS011;14508;50.924;11.600;2023-10-13T06:51:40;7.60;;;2.60;;
26953;SDS011;14508;50.924;11.600;2023-10-13T06:54:09;7.05;;;3.20;;
26953;SDS011;14508;50.924;11.600;2023-10-13T06:56:46;7.78;;;3.08;;
26953;SDS011;14508;50.924;11.600;2023-10-13T06:59:17;7.70;;;3.70;;
26953;SDS011;14508;50.924;11.600;2023-10-13T07:01:47;4.95;;;3.45;;
26953;SDS011;14508;50.924;11.600;2023-10-13T07:04:18;7.28;;;3.40;;
26953;SDS011;14508;50.924;11.600;2023-10-13T07:06:48;5.63;;;3.13;;
26953;SDS011;14508;50.924;11.600;2023-10-13T07:09:17;10.57;;;3.10;;
26953;SDS011;14508;50.924;11.600;2023-10-13T07:12:04;6.43;;;3.33;;
26953;SDS011;14508;50.924;11.600;2023-10-13T07:14:34;11.43;;;3.50;;
26953;SDS011;14508;50.924;11.600;2023-10-13T07:17:05;7.22;;;3.53;;
26953;SDS011;14508;50.924;11.600;2023-10-13T07:19:34;6.82;;;3.13;;
26953;SDS011;14508;50.924;11.600;2023-10-13T07:22:11;8.52;;;4.00;;
26953;SDS011;14508;50.924;11.600;2023-10-13T07:24:47;5.57;;;3.90;;
26953;SDS011;14508;50.924;11.600;2023-10-13T07:27:18;11.10;;;3.40;;
26953;SDS011;14508;50.924;11.600;2023-10-13T07:29:54;7.73;;;3.80;;
26953;SDS011;14508;50.924;11.600;2023-10-13T07:32:41;6.43;;;3.22;;
26953;SDS011;14508;50.924;11.600;2023-10-13T07:35:14;5.22;;;3.22;;
26953;SDS011;14508;50.924;11.600;2023-10-13T07:37:46;5.85;;;3.55;;
26953;SDS011;14508;50.924;11.600;2023-10-13T07:40:19;4.25;;;3.05;;
26953;SDS011;14508;50.924;11.600;2023-10-13T07:43:06;5.82;;;3.35;;
26953;SDS011;14508;50.924;11.600;2023-10-13T07:45:37;6.55;;;3.15;;
26953;SDS011;14508;50.924;11.600;2023-10-13T07:48:09;6.13;;;3.50;;
26953;SDS011;14508;50.924;11.600;2023-10-13T07:50:46;8.55;;;3.50;;
26953;SDS011;14508;50.924;11.600;2023-10-13T07:53:15;6.45;;;4.05;;
26953;SDS011;14508;50.924;11.600;2023-10-13T07:55:50;10.00;;;3.70;;
26953;SDS011;14508;50.924;11.600;2023-10-13T07:58:22;11.07;;;3.97;;
26953;SDS011;14508;50.924;11.600;2023-10-13T08:00:52;8.93;;;3.53;;
26953;SDS011;14508;50.924;11.600;2023-10-13T08:03:34;9.27;;;3.95;;
26953;SDS011;14508;50.924;11.600;2023-10-13T08:06:11;7.32;;;3.45;;
26953;SDS011;14508;50.924;11.600;2023-10-13T08:08:48;7.68;;;3.92;;
26953;SDS011;14508;50.924;11.600;2023-10-13T08:11:21;8.35;;;4.43;;
26953;SDS011;14508;50.924;11.600;2023-10-13T08:13:59;9.55;;;4.50;;
26953;SDS011;14508;50.924;11.600;2023-10-13T08:16:56;11.23;;;4.30;;
26953;SDS011;14508;50.924;11.600;2023-10-13T08:19:28;6.95;;;3.92;;
26953;SDS011;14508;50.924;11.600;2023-10-13T08:22:08;6.55;;;3.88;;
26953;SDS011;14508;50.924;11.600;2023-10-13T08:24:51;8.27;;;4.40;;
26953;SDS011;14508;50.924;11.600;2023-10-13T08:27:41;7.05;;;3.95;;
26953;SDS011;14508;50.924;11.600;2023-10-13T08:30:16;8.65;;;4.28;;
26953;SDS011;14508;50.924;11.600;2023-10-13T08:32:56;6.97;;;4.40;;
26953;SDS011;14508;50.924;11.600;2023-10-13T08:35:27;7.13;;;4.22;;
26953;SDS011;14508;50.924;11.600;2023-10-13T08:38:04;11.07;;;4.57;;
26953;SDS011;14508;50.924;11.600;2023-10-13T08:40:56;12.52;;;4.70;;
26953;SDS011;14508;50.924;11.600;2023-10-13T08:43:40;6.37;;;4.33;;
26953;SDS011;14508;50.924;11.600;2023-10-13T08:46:12;12.57;;;4.47;;
26953;SDS011;14508;50.924;11.600;2023-10-13T08:48:55;6.40;;;3.75;;
26953;SDS011;14508;50.924;11.600;2023-10-13T08:51:36;11.43;;;4.40;;
26953;SDS011;14508;50.924;11.600;2023-10-13T08:54:16;6.70;;;3.63;;
26953;SDS011;14508;50.924;11.600;2023-10-13T08:57:02;7.70;;;3.90;;
26953;SDS011;14508;50.924;11.600;2023-10-13T08:59:47;8.65;;;3.67;;
26953;SDS011;14508;50.924;11.600;2023-10-13T09:02:22;8.40;;;3.40;;
26953;SDS011;14508;50.924;11.600;2023-10-13T09:05:11;6.32;;;3.53;;
26953;SDS011;14508;50.924;11.600;2023-10-13T09:07:54;9.95;;;3.70;;
26953;SDS011;14508;50.924;11.600;2023-10-13T09:10:35;9.88;;;3.90;;
26953;SDS011;14508;50.924;11.600;2023-10-13T09:13:11;8.90;;;3.33;;
26953;SDS011;14508;50.924;11.600;2023-10-13T09:15:47;6.40;;;3.05;;
26953;SDS011;14508;50.924;11.600;2023-10-13T09:18:32;11.90;;;3.17;;
26953;SDS011;14508;50.924;11.600;2023-10-13T09:21:14;5.65;;;3.25;;
26953;SDS011;14508;50.924;11.600;2023-10-13T09:24:02;7.53;;;3.05;;
26953;SDS011;14508;50.924;11.600;2023-10-13T09:26:54;4.40;;;2.75;;
26953;SDS011;14508;50.924;11.600;2023-10-13T09:29:22;6.20;;;3.08;;
26953;SDS011;14508;50.924;11.600;2023-10-13T09:31:58;7.43;;;2.85;;
26953;SDS011;14508;50.924;11.600;2023-10-13T09:34:29;6.90;;;2.67;;
26953;SDS011;14508;50.924;11.600;2023-10-13T09:37:00;4.90;;;2.78;;
26953;SDS011;14508;50.924;11.600;2023-10-13T09:39:31;7.90;;;2.97;;
26953;SDS011;14508;50.924;11.600;2023-10-13T09:42:11;8.63;;;3.22;;
26953;SDS011;14508;50.924;11.600;2023-10-13T09:44:43;7.80;;;3.88;;
26953;SDS011;14508;50.924;11.600;2023-10-13T09:47:19;8.18;;;3.15;;
26953;SDS011;14508;50.924;11.600;2023-10-13T09:49:59;8.35;;;3.75;;
26953;SDS011;14508;50.924;11.600;2023-10-13T09:52:32;12.13;;;4.28;;
26953;SDS011;14508;50.924;11.600;2023-10-13T09:55:07;9.93;;;2.95;;
26953;SDS011;14508;50.924;11.600;2023-10-13T09:57:47;6.13;;;3.03;;
26953;SDS011;14508;50.924;11.600;2023-10-13T10:00:25;5.55;;;3.17;;
26953;SDS011;14508;50.924;11.600;2023-10-13T10:03:16;4.60;;;2.60;;
26953;SDS011;14508;50.924;11.600;2023-10-13T10:06:06;5.22;;;3.35;;
26953;SDS011;14508;50.924;11.600;2023-10-13T10:08:42;12.20;;;3.53;;
26953;SDS011;14508;50.924;11.600;2023-10-13T10:11:34;6.40;;;3.42;;
26953;SDS011;14508;50.924;11.600;2023-10-13T10:17:29;4.15;;;2.95;;
26953;SDS011;14508;50.924;11.600;2023-10-13T10:20:06;6.47;;;3.13;;
26953;SDS011;14508;50.924;11.600;2023-10-13T10:22:55;8.57;;;3.60;;
26953;SDS011;14508;50.924;11.600;2023-10-13T10:25:29;8.02;;;3.25;;
26953;SDS011;14508;50.924;11.600;2023-10-13T10:28:03;6.57;;;4.03;;
26953;SDS011;14508;50.924;11.600;2023-10-13T10:30:33;7.07;;;2.90;;
26953;SDS011;14508;50.924;11.600;2023-10-13T10:33:05;5.93;;;3.40;;
26953;SDS011;14508;50.924;11.600;2023-10-13T10:35:39;4.63;;;2.83;;
26953;SDS011;14508;50.924;11.600;2023-10-13T10:38:09;8.40;;;3.17;;
26953;SDS011;14508;50.924;11.600;2023-10-13T10:40:51;10.32;;;3.15;;
26953;SDS011;14508;50.924;11.600;2023-10-13T10:43:25;6.00;;;2.70;;
26953;SDS011;14508;50.924;11.600;2023-10-13T10:45:59;9.05;;;3.38;;
26953;SDS011;14508;50.924;11.600;2023-10-13T10:48:27;6.15;;;2.83;;
26953;SDS011;14508;50.924;11.600;2023-10-13T10:51:04;5.85;;;3.60;;
26953;SDS011;14508;50.924;11.600;2023-10-13T10:53:47;4.68;;;2.78;;
26953;SDS011;14508;50.924;11.600;2023-10-13T10:56:17;9.18;;;3.17;;
26953;SDS011;14508;50.924;11.600;2023-10-13T10:58:54;10.25;;;4.05;;
26953;SDS011;14508;50.924;11.600;2023-10-13T11:01:24;7.75;;;3.15;;
26953;SDS011;14508;50.924;11.600;2023-10-13T11:04:01;4.80;;;2.90;;
26953;SDS011;14508;50.924;11.600;2023-10-13T11:06:35;11.65;;;3.22;;
26953;SDS011;14508;50.924;11.600;2023-10-13T11:09:09;10.32;;;3.55;;
26953;SDS011;14508;50.924;11.600;2023-10-13T11:11:47;5.32;;;3.13;;
26953;SDS011;14508;50.924;11.600;2023-10-13T11:14:21;7.50;;;3.40;;
26953;SDS011;14508;50.924;11.600;2023-10-13T11:16:52;7.47;;;3.08;;
26953;SDS011;14508;50.924;11.600;2023-10-13T11:19:21;5.88;;;3.15;;
26953;SDS011;14508;50.924;11.600;2023-10-13T11:22:09;7.07;;;3.08;;
26953;SDS011;14508;50.924;11.600;2023-10-13T11:24:41;9.13;;;3.95;;
26953;SDS011;14508;50.924;11.600;2023-10-13T11:27:15;6.18;;;3.38;;
26953;SDS011;14508;50.924;11.600;2023-10-13T11:29:49;7.95;;;3.17;;
26953;SDS011;14508;50.924;11.600;2023-10-13T11:32:19;7.63;;;3.40;;
26953;SDS011;14508;50.924;11.600;2023-10-13T11:34:47;6.75;;;2.97;;
26953;SDS011;14508;50.924;11.600;2023-10-13T11:37:21;7.13;;;3.50;;
26953;SDS011;14508;50.924;11.600;2023-10-13T11:40:05;10.45;;;3.33;;
26953;SDS011;14508;50.924;11.600;2023-10-13T11:42:42;8.18;;;3.20;;
26953;SDS011;14508;50.924;11.600;2023-10-13T11:45:15;8.85;;;4.13;;
26953;SDS011;14508;50.924;11.600;2023-10-13T11:47:55;13.25;;;3.58;;
26953;SDS011;14508;50.924;11.600;2023-10-13T11:50:26;5.10;;;2.88;;
26953;SDS011;14508;50.924;11.600;2023-10-13T11:53:00;6.30;;;3.45;;
26953;SDS011;14508;50.924;11.600;2023-10-13T11:55:34;4.38;;;2.72;;
26953;SDS011;14508;50.924;11.600;2023-10-13T11:58:03;5.90;;;3.42;;
26953;SDS011;14508;50.924;11.600;2023-10-13T12:00:33;9.02;;;3.88;;
26953;SDS011;14508;50.924;11.600;2023-10-13T12:03:15;6.90;;;3.25;;
26953;SDS011;14508;50.924;11.600;2023-10-13T12:08:46;8.15;;;3.40;;
26953;SDS011;14508;50.924;11.600;2023-10-13T12:11:18;5.30;;;3.13;;
26953;SDS011;14508;50.924;11.600;2023-10-13T12:13:58;7.30;;;3.03;;
26953;SDS011;14508;50.924;11.600;2023-10-13T12:16:41;4.72;;;3.03;;
26953;SDS011;14508;50.924;11.600;2023-10-13T12:19:15;9.73;;;3.10;;
26953;SDS011;14508;50.924;11.600;2023-10-13T12:21:43;6.07;;;3.03;;
26953;SDS011;14508;50.924;11.600;2023-10-13T12:24:13;5.03;;;2.75;;
26953;SDS011;14508;50.924;11.600;2023-10-13T12:26:49;6.53;;;3.38;;
26953;SDS011;14508;50.924;11.600;2023-10-13T12:29:23;6.72;;;2.90;;
26953;SDS011;14508;50.924;11.600;2023-10-13T12:31:56;5.63;;;3.05;;
26953;SDS011;14508;50.924;11.600;2023-10-13T12:34:35;14.23;;;3.47;;
26953;SDS011;14508;50.924;11.600;2023-10-13T12:37:21;7.13;;;3.10;;
26953;SDS011;14508;50.924;11.600;2023-10-13T12:40:05;4.32;;;2.50;;
26953;SDS011;14508;50.924;11.600;2023-10-13T12:42:52;7.32;;;3.95;;
26953;SDS011;14508;50.924;11.600;2023-10-13T12:45:38;7.03;;;3.63;;
26953;SDS011;14508;50.924;11.600;2023-10-13T12:48:25;7.28;;;2.97;;
26953;SDS011;14508;50.924;11.600;2023-10-13T12:51:10;8.27;;;3.05;;
26953;SDS011;14508;50.924;11.600;2023-10-13T12:53:47;7.35;;;3.15;;
26953;SDS011;14508;50.924;11.600;2023-10-13T12:56:16;7.70;;;3.25;;
26953;SDS011;14508;50.924;11.600;2023-10-13T12:58:52;9.35;;;2.50;;
26953;SDS011;14508;50.924;11.600;2023-10-13T13:01:21;5.47;;;2.90;;
26953;SDS011;14508;50.924;11.600;2023-10-13T13:03:52;7.32;;;3.05;;
26953;SDS011;14508;50.924;11.600;2023-10-13T13:06:22;4.05;;;2.72;;
26953;SDS011;14508;50.924;11.600;2023-10-13T13:08:52;7.82;;;2.95;;
26953;SDS011;14508;50.924;11.600;2023-10-13T13:11:20;7.30;;;2.92;;
26953;SDS011;14508;50.924;11.600;2023-10-13T13:13:52;8.07;;;2.97;;
26953;SDS011;14508;50.924;11.600;2023-10-13T13:16:20;6.85;;;3.03;;
26953;SDS011;14508;50.924;11.600;2023-10-13T13:18:53;9.50;;;3.35;;
26953;SDS011;14508;50.924;11.600;2023-10-13T13:21:21;6.88;;;3.05;;
26953;SDS011;14508;50.924;11.600;2023-10-13T13:23:50;8.73;;;2.83;;
26953;SDS011;14508;50.924;11.600;2023-10-13T13:29:46;9.02;;;3.63;;
26953;SDS011;14508;50.924;11.600;2023-10-13T13:32:14;5.32;;;2.80;;
26953;SDS011;14508;50.924;11.600;2023-10-13T13:34:46;10.60;;;3.45;;
26953;SDS011;14508;50.924;11.600;2023-10-13T13:37:24;5.82;;;3.08;;
26953;SDS011;14508;50.924;11.600;2023-10-13T13:39:55;8.18;;;3.10;;
26953;SDS011;14508;50.924;11.600;2023-10-13T13:42:39;7.07;;;2.50;;
26953;SDS011;14508;50.924;11.600;2023-10-13T13:45:12;6.78;;;2.63;;
26953;SDS011;14508;50.924;11.600;2023-10-13T13:47:48;5.20;;;2.95;;
26953;SDS011;14508;50.924;11.600;2023-10-13T13:50:22;6.45;;;2.70;;
26953;SDS011;14508;50.924;11.600;2023-10-13T13:52:53;5.18;;;2.30;;
26953;SDS011;14508;50.924;11.600;2023-10-13T13:55:22;5.70;;;2.92;;
26953;SDS011;14508;50.924;11.600;2023-10-13T13:57:55;8.57;;;3.30;;
26953;SDS011;14508;50.924;11.600;2023-10-13T14:00:23;5.57;;;3.15;;
26953;SDS011;14508;50.924;11.600;2023-10-13T14:03:04;7.85;;;3.00;;
26953;SDS011;14508;50.924;11.600;2023-10-13T14:05:34;10.40;;;3.15;;
26953;SDS011;14508;50.924;11.600;2023-10-13T14:08:04;9.82;;;3.30;;
26953;SDS011;14508;50.924;11.600;2023-10-13T14:10:38;6.05;;;3.22;;
26953;SDS011;14508;50.924;11.600;2023-10-13T14:13:20;6.85;;;2.58;;
26953;SDS011;14508;50.924;11.600;2023-10-13T14:15:58;8.32;;;2.80;;
26953;SDS011;14508;50.924;11.600;2023-10-13T14:18:26;5.68;;;2.78;;
26953;SDS011;14508;50.924;11.600;2023-10-13T14:20:58;4.88;;;2.90;;
26953;SDS011;14508;50.924;11.600;2023-10-13T14:23:30;5.75;;;2.88;;
26953;SDS011;14508;50.924;11.600;2023-10-13T14:26:00;3.45;;;2.65;;
26953;SDS011;14508;50.924;11.600;2023-10-13T14:28:28;6.43;;;2.85;;
26953;SDS011;14508;50.924;11.600;2023-10-13T14:31:04;8.45;;;2.63;;
26953;SDS011;14508;50.924;11.600;2023-10-13T14:33:36;6.35;;;3.30;;
26953;SDS011;14508;50.924;11.600;2023-10-13T14:36:08;6.15;;;3.10;;
26953;SDS011;14508;50.924;11.600;2023-10-13T14:38:38;5.47;;;2.80;;
26953;SDS011;14508;50.924;11.600;2023-10-13T14:41:10;4.88;;;2.53;;
26953;SDS011;14508;50.924;11.600;2023-10-13T14:43:39;5.38;;;2.65;;
26953;SDS011;14508;50.924;11.600;2023-10-13T14:46:07;7.40;;;2.83;;
26953;SDS011;14508;50.924;11.600;2023-10-13T14:48:36;5.13;;;2.40;;
26953;SDS011;14508;50.924;11.600;2023-10-13T14:51:09;4.28;;;2.50;;
26953;SDS011;14508;50.924;11.600;2023-10-13T14:53:39;6.32;;;2.53;;
26953;SDS011;14508;50.924;11.600;2023-10-13T14:56:10;7.30;;;2.50;;
26953;SDS011;14508;50.924;11.600;2023-10-13T14:58:38;10.63;;;2.55;;
26953;SDS011;14508;50.924;11.600;2023-10-13T15:01:12;3.97;;;2.03;;
26953;SDS011;14508;50.924;11.600;2023-10-13T15:03:42;5.10;;;2.50;;
26953;SDS011;14508;50.924;11.600;2023-10-13T15:06:15;6.93;;;2.63;;
26953;SDS011;14508;50.924;11.600;2023-10-13T15:08:44;6.55;;;2.13;;
26953;SDS011;14508;50.924;11.600;2023-10-13T15:11:13;5.88;;;2.17;;
26953;SDS011;14508;50.924;11.600;2023-10-13T15:13:44;5.63;;;2.70;;
26953;SDS011;14508;50.924;11.600;2023-10-13T15:16:15;6.35;;;3.00;;
26953;SDS011;14508;50.924;11.600;2023-10-13T15:18:44;5.00;;;2.67;;
26953;SDS011;14508;50.924;11.600;2023-10-13T15:21:19;7.25;;;2.38;;
26953;SDS011;14508;50.924;11.600;2023-10-13T15:23:53;11.02;;;2.45;;
26953;SDS011;14508;50.924;11.600;2023-10-13T15:26:25;6.82;;;2.97;;
26953;SDS011;14508;50.924;11.600;2023-10-13T15:28:53;5.97;;;2.67;;
26953;SDS011;14508;50.924;11.600;2023-10-13T15:31:22;11.25;;;3.10;;
26953;SDS011;14508;50.924;11.600;2023-10-13T15:33:54;7.20;;;2.35;;
26953;SDS011;14508;50.924;11.600;2023-10-13T15:36:23;7.85;;;2.45;;
26953;SDS011;14508;50.924;11.600;2023-10-13T15:38:51;4.57;;;2.35;;
26953;SDS011;14508;50.924;11.600;2023-10-13T15:41:21;5.65;;;2.22;;
26953;SDS011;14508;50.924;11.600;2023-10-13T15:43:53;5.15;;;2.17;;
26953;SDS011;14508;50.924;11.600;2023-10-13T15:46:22;5.00;;;2.20;;
26953;SDS011;14508;50.924;11.600;2023-10-13T15:49:10;7.78;;;2.50;;